createdAt,value
2024-05-09T00:01:55.866Z,28978.41
2024-05-09T00:03:58.105Z,29960.34
2024-05-09T00:06:00.091Z,28007.91
2024-05-09T00:08:07.512Z,24752.31
2024-05-09T00:10:15.151Z,21822.00
2024-05-09T00:12:25.380Z,18569.16
2024-05-09T00:14:27.411Z,14019.75
2024-05-09T00:16:29.479Z,7203.16
2024-05-09T00:18:31.706Z,722.53
2024-05-09T00:20:38.826Z,-6393.25
2024-05-09T00:22:43.260Z,-15628.03
2024-05-09T00:24:47.666Z,-23479.25
2024-05-09T00:26:49.690Z,-23480.53
2024-05-09T00:28:51.590Z,-23480.69
2024-05-09T00:30:53.416Z,-23478.94
2024-05-09T00:32:55.572Z,-23478.31
2024-05-09T00:34:57.546Z,-23475.47
2024-05-09T00:36:59.715Z,-23471.66
2024-05-09T00:39:01.471Z,-22357.78
2024-05-09T00:41:06.334Z,-23117.53
2024-05-09T00:43:08.588Z,-23473.09
2024-05-09T00:45:12.302Z,-23364.41
2024-05-09T00:47:14.348Z,-17353.88
2024-05-09T00:49:16.570Z,-11768.41
2024-05-09T00:51:19.642Z,-6068.91
2024-05-09T00:53:22.047Z,2338.59
2024-05-09T00:55:24.235Z,2986.38
2024-05-09T00:57:28.733Z,397.06
2024-05-09T00:59:33.329Z,-897.13
2024-05-09T01:01:35.333Z,-1544.00
2024-05-09T01:03:37.491Z,-573.69
2024-05-09T01:05:39.916Z,2014.50
2024-05-09T01:07:43.215Z,5252.91
2024-05-09T01:09:45.076Z,4605.25
2024-05-09T01:11:46.916Z,2662.38
2024-05-09T01:13:51.409Z,3956.59
2024-05-09T01:15:53.409Z,8492.50
2024-05-09T01:17:55.688Z,11411.09
2024-05-09T01:19:57.707Z,14008.16
2024-05-09T01:21:59.584Z,15630.84
2024-05-09T01:24:04.534Z,17578.09
2024-05-09T01:26:06.333Z,23429.41
2024-05-09T01:28:08.289Z,28311.69
2024-05-09T01:30:16.954Z,32555.97
2024-05-09T01:32:22.753Z,33535.28
2024-05-09T01:34:25.007Z,33858.78
2024-05-09T01:36:26.913Z,36797.09
2024-05-09T01:38:28.829Z,36795.41
2024-05-09T01:40:38.128Z,35485.34
2024-05-09T01:42:41.897Z,41037.66
2024-05-09T01:44:43.673Z,44960.03
2024-05-09T01:46:45.510Z,46922.16
2024-05-09T01:48:47.474Z,50195.25
2024-05-09T01:50:49.352Z,52166.69
2024-05-09T01:52:51.233Z,53152.94
2024-05-09T01:54:53.545Z,54463.63
2024-05-09T01:56:57.976Z,55766.41
2024-05-09T01:58:59.812Z,58382.22
2024-05-09T02:01:01.711Z,61666.56
2024-05-09T02:03:04.096Z,64953.72
2024-05-09T02:05:06.682Z,67249.72
2024-05-09T02:07:08.548Z,70542.59
2024-05-09T02:09:10.377Z,72188.28
2024-05-09T02:11:12.255Z,73832.66
2024-05-09T02:13:17.199Z,74826.31
2024-05-09T02:15:19.000Z,75486.78
2024-05-09T02:17:20.902Z,75826.94
2024-05-09T02:19:22.930Z,75161.09
2024-05-09T02:21:24.819Z,75493.31
2024-05-09T02:23:26.616Z,74828.91
2024-05-09T02:25:28.454Z,75488.09
2024-05-09T02:27:30.204Z,76809.44
2024-05-09T02:29:34.709Z,76140.78
2024-05-09T02:31:36.537Z,76803.44
2024-05-09T02:33:38.520Z,75813.75
2024-05-09T02:35:40.968Z,74498.06
2024-05-09T02:37:42.879Z,73515.34
2024-05-09T02:39:44.709Z,71201.66
2024-05-09T02:41:46.567Z,70545.06
2024-05-09T02:43:48.444Z,69230.91
2024-05-09T02:45:52.856Z,68892.22
2024-05-09T02:47:54.978Z,68569.75
2024-05-09T02:49:57.036Z,67262.06
2024-05-09T02:51:58.853Z,64948.63
2024-05-09T02:54:00.653Z,64295.19
2024-05-09T02:56:02.523Z,63632.84
2024-05-09T02:58:04.716Z,63960.34
2024-05-09T03:00:15.004Z,65275.06
2024-05-09T03:02:23.212Z,65941.25
2024-05-09T03:04:25.026Z,65612.41
2024-05-09T03:06:26.918Z,65285.34
2024-05-09T03:08:28.950Z,65277.94
2024-05-09T03:10:35.945Z,65931.44
2024-05-09T03:12:39.900Z,66910.94
2024-05-09T03:14:41.707Z,67557.47
2024-05-09T03:16:43.579Z,69856.34
2024-05-09T03:18:48.084Z,72810.28
2024-05-09T03:20:49.886Z,75770.41
2024-05-09T03:22:54.872Z,77408.59
2024-05-09T03:24:58.172Z,78386.47
2024-05-09T03:26:59.957Z,79704.31
2024-05-09T03:29:01.785Z,79693.97
2024-05-09T03:31:03.757Z,80350.53
2024-05-09T03:33:05.958Z,80026.41
2024-05-09T03:35:10.432Z,78367.47
2024-05-09T03:37:13.285Z,78376.28
2024-05-09T03:39:15.178Z,79707.75
2024-05-09T03:41:19.374Z,82012.06
2024-05-09T03:43:21.341Z,83668.97
2024-05-09T03:45:23.079Z,84993.75
2024-05-09T03:47:24.938Z,85320.97
2024-05-09T03:49:26.959Z,85651.91
2024-05-09T03:51:31.455Z,85316.53
2024-05-09T03:53:33.388Z,85651.91
2024-05-09T03:55:36.408Z,86311.63
2024-05-09T03:57:39.617Z,86630.66
2024-05-09T03:59:41.499Z,88633.25
2024-05-09T04:01:43.418Z,88292.13
2024-05-09T04:03:45.392Z,87301.75
2024-05-09T04:05:47.302Z,87290.47
2024-05-09T04:07:51.960Z,87287.47
2024-05-09T04:09:53.716Z,88939.22
2024-05-09T04:11:56.285Z,90597.13
2024-05-09T04:13:58.236Z,91607.09
2024-05-09T04:16:00.021Z,91599.22
2024-05-09T04:18:02.643Z,91597.63
2024-05-09T04:20:08.335Z,92612.13
2024-05-09T04:22:10.316Z,92278.13
2024-05-09T04:24:14.756Z,91285.03
2024-05-09T04:26:16.985Z,91620.50
2024-05-09T04:28:19.012Z,91303.91
2024-05-09T04:30:30.182Z,90660.34
2024-05-09T04:32:38.352Z,87996.63
2024-05-09T04:34:40.255Z,87682.78
2024-05-09T04:36:44.542Z,87674.44
2024-05-09T04:38:46.565Z,88060.38
2024-05-09T04:40:51.759Z,80840.84
2024-05-09T04:42:53.617Z,54611.34
2024-05-09T04:44:58.680Z,14931.03
2024-05-09T04:47:00.664Z,-22450.78
2024-05-09T04:49:02.668Z,-23506.69
2024-05-09T04:51:07.168Z,-23509.06
2024-05-09T04:53:10.592Z,-23507.31
2024-05-09T04:55:13.619Z,-23500.81
2024-05-09T04:57:18.022Z,-23500.34
2024-05-09T04:59:19.816Z,-23497.34
2024-05-09T05:01:21.723Z,-23495.13
2024-05-09T05:03:23.773Z,-23490.69
2024-05-09T05:05:25.772Z,-23492.09
2024-05-09T05:07:27.550Z,-23491.31
2024-05-09T05:09:29.469Z,-23494.00
2024-05-09T05:11:31.335Z,-23493.22
2024-05-09T05:13:38.636Z,-23492.09
2024-05-09T05:15:42.915Z,-23494.31
2024-05-09T05:17:44.889Z,-23495.44
2024-05-09T05:19:47.985Z,-23497.97
2024-05-09T05:21:49.822Z,-23496.88
2024-05-09T05:23:51.601Z,-23494.50
2024-05-09T05:25:54.184Z,-23497.34
2024-05-09T05:27:56.317Z,-23498.75
2024-05-09T05:30:00.781Z,-23504.16
2024-05-09T05:32:02.630Z,-23497.66
2024-05-09T05:34:04.677Z,-23504.00
2024-05-09T05:36:07.214Z,-23504.16
2024-05-09T05:38:10.271Z,-23503.34
2024-05-09T05:40:20.614Z,-23504.31
2024-05-09T05:42:26.878Z,-23508.09
2024-05-09T05:44:28.719Z,-23509.22
2024-05-09T05:46:33.149Z,-23513.97
2024-05-09T05:48:35.238Z,-23505.09
2024-05-09T05:50:38.880Z,-23505.56
2024-05-09T05:52:40.914Z,-23511.44
2024-05-09T05:54:42.775Z,-23513.50
2024-05-09T05:56:44.714Z,-23508.44
2024-05-09T05:58:46.648Z,-23518.88
2024-05-09T06:00:48.565Z,-23517.28
2024-05-09T06:02:53.267Z,-23523.63
2024-05-09T06:04:55.606Z,-23536.78
2024-05-09T06:06:57.421Z,-23538.19
2024-05-09T06:08:59.224Z,-23542.00
2024-05-09T06:11:01.160Z,-23543.88
2024-05-09T06:13:03.087Z,-23536.94
2024-05-09T06:15:06.083Z,-23543.56
2024-05-09T06:17:07.956Z,-23546.25
2024-05-09T06:21:16.766Z,-23554.03
2024-05-09T06:23:18.687Z,-23559.41
2024-05-09T06:25:20.772Z,-23569.66
2024-05-09T06:27:22.594Z,-23554.66
2024-05-09T06:29:24.435Z,-23546.09
2024-05-09T06:31:26.353Z,-23549.59
2024-05-09T06:33:28.403Z,-23546.25
2024-05-09T06:35:33.387Z,-23557.97
2024-05-09T06:37:35.414Z,-23563.50
2024-05-09T06:39:37.218Z,-23570.47
2024-05-09T06:41:39.057Z,-23585.31
2024-05-09T06:43:41.794Z,-23563.50
2024-05-09T06:45:44.230Z,-23560.19
2024-05-09T06:47:46.215Z,-23566.34
2024-05-09T06:49:48.159Z,-23565.88
2024-05-09T06:51:52.604Z,-23590.22
2024-05-09T06:53:54.689Z,-23591.97
2024-05-09T06:55:56.497Z,-23587.06
2024-05-09T06:57:58.283Z,-23594.81
2024-05-09T07:00:00.050Z,-23599.53
2024-05-09T07:02:02.644Z,-23626.72
2024-05-09T07:04:04.970Z,-23615.03
2024-05-09T07:06:07.010Z,-23615.66
2024-05-09T07:08:11.867Z,-23626.06
2024-05-09T07:10:21.699Z,-23634.59
2024-05-09T07:12:27.708Z,-23628.59
2024-05-09T07:14:30.019Z,-23651.31
2024-05-09T07:16:32.094Z,-23638.38
2024-05-09T07:18:34.019Z,-23630.50
2024-05-09T07:20:35.952Z,-23669.28
2024-05-09T07:22:37.842Z,-23657.94
2024-05-09T07:24:42.226Z,-23650.53
2024-05-09T07:26:44.046Z,-23669.47
2024-05-09T07:28:45.975Z,-23668.03
2024-05-09T07:30:48.054Z,-23647.69
2024-05-09T07:32:50.162Z,-23644.06
2024-05-09T07:34:52.190Z,-23649.13
2024-05-09T07:36:54.025Z,-23677.03
2024-05-09T07:38:55.806Z,-23673.22
2024-05-09T07:41:00.231Z,-23723.78
2024-05-09T07:43:03.227Z,-23678.13
2024-05-09T07:45:21.581Z,-23699.88
2024-05-09T07:48:57.124Z,-23701.28
2024-05-09T07:51:32.778Z,-23715.13
2024-05-09T07:53:29.674Z,-23745.97
2024-05-09T07:54:35.788Z,-23715.91
2024-05-09T07:56:40.660Z,-23743.78
2024-05-09T07:58:43.617Z,-23733.38
2024-05-09T08:00:45.500Z,-23750.22
2024-05-09T08:02:47.483Z,-23715.44
2024-05-09T08:04:49.560Z,-23709.94
2024-05-09T08:06:51.481Z,-23735.28
2024-05-09T08:08:53.500Z,-23699.88
2024-05-09T08:10:55.450Z,-23759.66
2024-05-09T08:13:00.012Z,-23723.16
2024-05-09T08:15:02.029Z,-23750.06
2024-05-09T08:17:04.278Z,-23757.13
2024-05-09T08:19:06.320Z,-23732.91
2024-05-09T08:21:08.234Z,-23729.78
2024-05-09T08:23:11.263Z,-23738.91
2024-05-09T08:25:14.260Z,-23700.34
2024-05-09T08:27:16.209Z,-23721.44
2024-05-09T08:29:20.565Z,-23705.53
2024-05-09T08:31:22.435Z,-23747.69
2024-05-09T08:33:24.456Z,-23747.84
2024-05-09T08:35:28.772Z,-23752.41
2024-05-09T08:37:35.010Z,-23730.25
2024-05-09T08:39:39.914Z,-23725.38
2024-05-09T08:41:42.887Z,-23725.06
2024-05-09T08:43:44.935Z,-23765.31
2024-05-09T08:45:49.581Z,-23767.50
2024-05-09T08:47:53.425Z,-23792.16
2024-05-09T08:49:58.434Z,-23760.91
2024-05-09T08:52:00.472Z,-23745.19
2024-05-09T08:54:02.356Z,-23761.22
2024-05-09T08:56:06.549Z,-23792.00
2024-05-09T08:58:10.349Z,-23752.88
2024-05-09T09:00:15.146Z,-23756.97
2024-05-09T09:02:24.346Z,-23788.88
2024-05-09T09:04:26.404Z,-23781.66
2024-05-09T09:06:29.552Z,-23749.59
2024-05-09T09:08:32.446Z,-23798.75
2024-05-09T09:10:35.185Z,-23790.75
2024-05-09T09:12:37.329Z,-23830.91
2024-05-09T09:14:39.135Z,-23786.97
2024-05-09T09:16:40.954Z,-23762.47
2024-05-09T09:18:46.537Z,-23770.00
2024-05-09T09:20:48.682Z,-23830.44
2024-05-09T09:22:50.512Z,-23845.03
2024-05-09T09:24:52.542Z,-23791.22
2024-05-09T09:26:56.901Z,-23840.94
2024-05-09T09:28:59.942Z,-23850.50
2024-05-09T09:31:01.982Z,-23807.69
2024-05-09T09:33:03.997Z,-23791.22
2024-05-09T09:35:08.764Z,-23796.09
2024-05-09T09:37:11.446Z,-23813.81
2024-05-09T09:39:16.872Z,-23829.66
2024-05-09T09:41:23.962Z,-23781.00
2024-05-09T09:43:26.704Z,-23820.25
2024-05-09T09:45:29.278Z,-23829.34
2024-05-09T09:47:32.081Z,-23849.72
2024-05-09T09:49:36.071Z,-23828.56
2024-05-09T09:51:42.542Z,-23838.75
2024-05-09T09:53:45.118Z,-23842.50
2024-05-09T09:55:48.125Z,-23838.91
2024-05-09T09:57:50.003Z,-23825.59
2024-05-09T09:59:54.605Z,-23837.19
2024-05-09T10:01:57.082Z,-23879.47
2024-05-09T10:03:59.340Z,-23854.41
2024-05-09T10:06:02.031Z,-23847.22
2024-05-09T10:08:08.401Z,-23828.72
2024-05-09T10:10:13.992Z,-23852.53
2024-05-09T10:12:20.706Z,-23804.56
2024-05-09T10:14:22.526Z,-23789.50
2024-05-09T10:16:24.535Z,-23782.91
2024-05-09T10:18:36.462Z,-23789.81
2024-05-09T10:20:40.373Z,-23776.00
2024-05-09T10:22:46.783Z,-23789.34
2024-05-09T10:24:51.600Z,-23757.28
2024-05-09T10:26:53.468Z,-23774.09
2024-05-09T10:28:56.120Z,-23755.25
2024-05-09T10:31:03.058Z,-23754.00
2024-05-09T10:33:10.710Z,-23754.16
2024-05-09T10:35:12.975Z,-23726.78
2024-05-09T10:37:15.256Z,-23753.03
2024-05-09T10:39:17.657Z,-23743.91
2024-05-09T10:41:23.518Z,-23730.88
2024-05-09T10:43:25.823Z,-23716.22
2024-05-09T10:45:28.190Z,-23730.56
2024-05-09T10:47:30.248Z,-23716.22
2024-05-09T10:49:32.142Z,-23717.19
2024-05-09T10:51:34.358Z,-23712.47
2024-05-09T10:53:42.471Z,-23716.22
2024-05-09T10:55:55.032Z,-23739.53
2024-05-09T10:57:59.552Z,-23735.13
2024-05-09T11:00:01.410Z,-23746.44
2024-05-09T11:02:04.812Z,-23760.59
2024-05-09T11:04:08.415Z,-23764.03
2024-05-09T11:06:10.964Z,-23760.91
2024-05-09T11:08:13.252Z,-23733.56
2024-05-09T11:10:20.996Z,-23745.19
2024-05-09T11:12:29.313Z,-23760.59
2024-05-09T11:14:34.167Z,-23772.53
2024-05-09T11:16:36.041Z,-23769.53
2024-05-09T11:18:39.231Z,-23771.91
2024-05-09T11:20:41.485Z,-23798.28
2024-05-09T11:22:45.234Z,-23777.88
2024-05-09T11:24:47.100Z,-23768.91
2024-05-09T11:26:49.049Z,-23775.03
2024-05-09T11:28:51.860Z,-23742.97
2024-05-09T11:31:05.450Z,-23729.13
2024-05-09T11:33:11.302Z,-23731.66
2024-05-09T11:35:13.101Z,-23746.75
2024-05-09T11:37:15.042Z,-23738.25
2024-05-09T11:39:16.917Z,-23762.16
2024-05-09T11:41:18.906Z,-23767.03
2024-05-09T11:43:21.149Z,-23764.50
2024-05-09T11:45:23.162Z,-23758.53
2024-05-09T11:47:27.739Z,-23765.47
2024-05-09T11:49:29.722Z,-23760.28
2024-05-09T11:51:31.652Z,-23761.22
2024-05-09T11:53:33.463Z,-23765.63
2024-05-09T11:55:35.343Z,-23758.72
2024-05-09T11:57:37.268Z,-23769.38
2024-05-09T11:59:39.101Z,-23764.38
2024-05-09T12:01:41.001Z,-23761.84
2024-05-09T12:03:45.897Z,-23769.06
2024-05-09T12:05:47.943Z,-23764.22
2024-05-09T12:07:50.062Z,-23772.69
2024-05-09T12:09:51.841Z,-23757.28
2024-05-09T12:11:53.836Z,-23770.34
2024-05-09T12:13:55.690Z,-23754.94
2024-05-09T12:15:58.162Z,-23756.19
2024-05-09T12:18:02.515Z,-23752.72
2024-05-09T12:20:17.418Z,-23750.53
2024-05-09T12:22:27.024Z,-23776.78
2024-05-09T12:24:28.869Z,-23802.38
2024-05-09T12:26:30.767Z,-23800.47
2024-05-09T12:28:32.617Z,-23779.59
2024-05-09T12:30:38.398Z,-23800.16
2024-05-09T12:32:42.310Z,-23783.53
2024-05-09T12:34:44.156Z,-23794.84
2024-05-09T12:36:48.712Z,-23796.88
2024-05-09T12:38:50.537Z,-23771.44
2024-05-09T12:40:52.586Z,-23752.72
2024-05-09T12:42:54.550Z,-23740.31
2024-05-09T12:44:56.350Z,-23737.63
2024-05-09T12:46:58.222Z,-23754.00
2024-05-09T12:49:00.370Z,-23766.88
2024-05-09T12:51:02.621Z,-23759.97
2024-05-09T12:53:07.172Z,-23765.94
2024-05-09T12:55:10.419Z,-23763.09
2024-05-09T12:57:12.430Z,-23784.00
2024-05-09T12:59:14.272Z,-23793.41
2024-05-09T13:01:16.205Z,-23791.06
2024-05-09T13:03:18.216Z,-23788.41
2024-05-09T13:05:20.150Z,-23770.97
2024-05-09T13:07:22.399Z,-23777.56
2024-05-09T13:09:26.955Z,-23767.81
2024-05-09T13:11:28.787Z,-23766.09
2024-05-09T13:13:30.542Z,-23752.72
2024-05-09T13:15:33.449Z,-23745.81
2024-05-09T13:17:35.476Z,-23761.22
2024-05-09T13:19:37.250Z,-23765.63
2024-05-09T13:21:39.067Z,-23770.00
2024-05-09T13:23:40.837Z,-23789.19
2024-05-09T13:25:45.232Z,-23782.44
2024-05-09T13:27:47.317Z,-23778.50
2024-05-09T13:29:49.189Z,-23806.44
2024-05-09T13:31:50.957Z,-23802.19
2024-05-09T13:33:52.847Z,-23789.66
2024-05-09T13:35:54.725Z,-23761.84
2024-05-09T13:37:56.514Z,-23771.91
2024-05-09T13:39:58.495Z,-23776.31
2024-05-09T13:42:03.047Z,-23765.47
2024-05-09T13:44:05.132Z,-23749.59
2024-05-09T13:46:07.088Z,-23756.97
2024-05-09T13:48:09.249Z,-23752.88
2024-05-09T13:50:16.968Z,-23742.03
2024-05-09T13:52:25.716Z,-23743.78
2024-05-09T13:54:27.729Z,-23739.53
2024-05-09T13:56:29.617Z,-23748.16
2024-05-09T13:58:34.345Z,-23764.38
2024-05-09T14:00:44.490Z,-23783.53
2024-05-09T14:02:50.141Z,-23780.88
2024-05-09T14:04:52.069Z,-23796.41
2024-05-09T14:06:54.128Z,-23791.69
2024-05-09T14:08:56.036Z,-23802.06
2024-05-09T14:10:57.911Z,-23809.91
2024-05-09T14:13:00.479Z,-23787.63
2024-05-09T14:15:05.786Z,-23759.34
2024-05-09T14:17:07.802Z,-23761.53
2024-05-09T14:19:09.780Z,-23757.13
2024-05-09T14:21:11.631Z,-23765.63
2024-05-09T14:23:14.036Z,-23755.56
2024-05-09T14:25:16.009Z,-23760.59
2024-05-09T14:27:18.199Z,-23762.47
2024-05-09T14:29:20.005Z,-23764.50
2024-05-09T14:31:24.447Z,-23776.47
2024-05-09T14:33:26.828Z,-23784.16
2024-05-09T14:35:28.860Z,-23791.84
2024-05-09T14:37:30.714Z,-23802.06
2024-05-09T14:39:32.563Z,-23795.47
2024-05-09T14:41:34.384Z,-23781.81
2024-05-09T14:43:36.130Z,-23763.41
2024-05-09T14:45:38.036Z,-23769.88
2024-05-09T14:47:42.618Z,-23769.53
2024-05-09T14:49:44.805Z,-23763.25
2024-05-09T14:51:47.976Z,-23762.47
2024-05-09T14:53:49.746Z,-23757.75
2024-05-09T14:55:51.794Z,-23763.41
2024-05-09T14:57:53.894Z,-23761.22
2024-05-09T14:59:55.810Z,-23776.94
2024-05-09T15:01:57.702Z,-23782.91
2024-05-09T15:04:02.483Z,-23779.28
2024-05-09T15:06:04.611Z,-23783.69
2024-05-09T15:08:07.773Z,-23769.06
2024-05-09T15:10:16.515Z,-23757.91
2024-05-09T15:12:25.203Z,-23750.84
2024-05-09T15:14:26.951Z,-23749.59
2024-05-09T15:16:28.782Z,-23741.09
2024-05-09T15:18:30.842Z,-23747.22
2024-05-09T15:20:37.091Z,-23756.50
2024-05-09T15:22:39.695Z,-23757.91
2024-05-09T15:24:42.215Z,-23758.06
2024-05-09T15:26:44.103Z,-23757.13
2024-05-09T15:28:46.019Z,-23777.25
2024-05-09T15:30:48.059Z,-23777.56
2024-05-09T15:32:50.090Z,-23774.09
2024-05-09T15:34:51.971Z,-23769.06
2024-05-09T15:36:58.102Z,-23767.03
2024-05-09T15:39:00.270Z,-23770.81
2024-05-09T15:41:02.133Z,-23768.28
2024-05-09T15:43:04.348Z,-23771.91
2024-05-09T15:45:06.591Z,-23768.44
2024-05-09T15:47:08.456Z,-23773.78
2024-05-09T15:49:10.428Z,-23785.09
2024-05-09T15:51:12.388Z,-23780.69
2024-05-09T15:53:16.796Z,-23771.91
2024-05-09T15:55:18.704Z,-23769.06
2024-05-09T15:57:20.727Z,-23771.91
2024-05-09T15:59:22.542Z,-23767.50
2024-05-09T16:01:24.532Z,-23761.69
2024-05-09T16:03:26.536Z,-23761.06
2024-05-09T16:05:28.606Z,-23757.44
2024-05-09T16:07:30.681Z,-23767.34
2024-05-09T16:09:35.183Z,-23767.19
2024-05-09T16:11:37.016Z,-23766.25
2024-05-09T16:13:38.893Z,-23764.38
2024-05-09T16:15:41.022Z,-23762.16
2024-05-09T16:17:43.002Z,-23765.78
2024-05-09T16:19:44.884Z,-23766.56
2024-05-09T16:21:46.722Z,-23761.38
2024-05-09T16:23:48.557Z,-23766.09
2024-05-09T16:25:53.081Z,-23763.09
2024-05-09T16:27:54.936Z,-23761.22
2024-05-09T16:29:56.827Z,-23751.78
2024-05-09T16:31:58.624Z,-23755.56
2024-05-09T16:34:00.563Z,-23764.38
2024-05-09T16:36:02.502Z,-23761.06
2024-05-09T16:38:05.174Z,-23764.03
2024-05-09T16:40:18.644Z,-23762.94
2024-05-09T16:42:30.748Z,-23761.06
2024-05-09T16:44:33.680Z,-23757.75
2024-05-09T16:46:37.081Z,-23756.34
2024-05-09T16:48:38.992Z,-23754.16
2024-05-09T16:50:40.853Z,-23753.69
2024-05-09T16:52:42.638Z,-23753.03
2024-05-09T16:54:44.394Z,-23754.94
2024-05-09T16:56:46.354Z,-23750.53
2024-05-09T16:58:51.115Z,-23747.22
2024-05-09T17:00:52.970Z,-23746.75
2024-05-09T17:02:54.884Z,-23744.25
2024-05-09T17:04:56.848Z,-23747.38
2024-05-09T17:06:58.876Z,-23743.78
2024-05-09T17:09:08.378Z,-23745.19
2024-05-09T17:11:13.707Z,-23744.88
2024-05-09T17:13:15.694Z,-23742.81
2024-05-09T17:15:20.103Z,-23742.34
2024-05-09T17:17:22.232Z,-23735.75
2024-05-09T17:19:24.402Z,-23733.69
2024-05-09T17:21:26.408Z,-23733.22
2024-05-09T17:23:28.725Z,-23728.81
2024-05-09T17:25:31.087Z,-23730.41
2024-05-09T17:27:33.107Z,-23731.03
2024-05-09T17:29:35.347Z,-23725.84
2024-05-09T17:31:39.835Z,-23728.03
2024-05-09T17:33:41.934Z,-23723.16
2024-05-09T17:35:43.858Z,-23727.41
2024-05-09T17:37:45.654Z,-23726.63
2024-05-09T17:39:47.508Z,-23725.22
2024-05-09T17:41:49.300Z,-23720.97
2024-05-09T17:43:51.181Z,-23719.53
2024-05-09T17:45:53.015Z,-23717.97
2024-05-09T17:47:58.365Z,-23715.91
2024-05-09T17:50:00.457Z,-23711.50
2024-05-09T17:52:02.363Z,-23715.28
2024-05-09T17:54:04.152Z,-23712.16
2024-05-09T17:56:07.083Z,-23711.03
2024-05-09T17:58:09.940Z,-23709.31
2024-05-09T18:00:17.288Z,-23707.72
2024-05-09T18:02:23.060Z,-23708.53
2024-05-09T18:04:29.637Z,-23707.41
2024-05-09T18:06:33.180Z,-23709.00
2024-05-09T18:08:34.999Z,-23707.72
2024-05-09T18:10:39.382Z,-23702.53
2024-05-09T18:12:42.134Z,-23702.69
2024-05-09T18:14:44.004Z,-23698.75
2024-05-09T18:16:45.930Z,-23694.50
2024-05-09T18:18:47.965Z,-23688.53
2024-05-09T18:20:52.465Z,-23686.94
2024-05-09T18:22:55.234Z,-23675.91
2024-05-09T18:24:57.088Z,-23681.59
2024-05-09T18:26:59.135Z,-23680.66
2024-05-09T18:29:01.043Z,-23668.19
2024-05-09T18:31:02.900Z,-23669.28
2024-05-09T18:33:06.832Z,-23664.09
2024-05-09T18:35:10.801Z,-23662.03
2024-05-09T18:37:15.274Z,-23661.41
2024-05-09T18:39:17.111Z,-23658.56
2024-05-09T18:41:18.991Z,-23653.53
2024-05-09T18:43:28.403Z,-23653.53
2024-05-09T18:45:33.163Z,-23653.84
2024-05-09T18:47:35.320Z,-23650.38
2024-05-09T18:49:37.254Z,-23647.22
2024-05-09T18:51:39.079Z,-23647.22
2024-05-09T18:53:44.971Z,-23644.38
2024-05-09T18:55:46.888Z,-23639.81
2024-05-09T18:57:48.775Z,-23641.38
2024-05-09T18:59:50.636Z,-23638.69
2024-05-09T19:01:52.649Z,-23636.81
2024-05-09T19:03:55.410Z,-23639.97
2024-05-09T19:05:57.503Z,-23637.28
2024-05-09T19:07:59.452Z,-23638.69
2024-05-09T19:10:05.558Z,-23639.19
2024-05-09T19:12:07.899Z,-23636.19
2024-05-09T19:14:09.761Z,-23633.34
2024-05-09T19:16:11.679Z,-23632.69
2024-05-09T19:18:14.295Z,-23628.28
2024-05-09T19:20:25.176Z,-23632.06
2024-05-09T19:22:33.231Z,-23638.38
2024-05-09T19:24:35.050Z,-23634.91
2024-05-09T19:26:39.528Z,-23635.88
2024-05-09T19:28:41.347Z,-23636.19
2024-05-09T19:30:43.475Z,-23641.84
2024-05-09T19:32:45.482Z,-23630.19
2024-05-09T19:34:47.425Z,-23640.28
2024-05-09T19:36:49.422Z,-23635.88
2024-05-09T19:38:51.332Z,-23640.91
2024-05-09T19:40:53.391Z,-23630.50
2024-05-09T19:42:58.004Z,-23629.72
2024-05-09T19:44:59.776Z,-23631.28
2024-05-09T19:47:01.888Z,-23626.41
2024-05-09T19:49:03.852Z,-23629.06
2024-05-09T19:51:05.869Z,-23630.97
2024-05-09T19:53:07.860Z,-23630.81
2024-05-09T19:55:09.798Z,-23632.88
2024-05-09T19:57:11.621Z,-23631.59
2024-05-09T19:59:16.068Z,-23632.56
2024-05-09T20:01:17.982Z,-23634.91
2024-05-09T20:03:20.048Z,-23639.97
2024-05-09T20:05:22.253Z,-23642.81
2024-05-09T20:07:24.215Z,-23647.84
2024-05-09T20:09:26.108Z,-23640.75
2024-05-09T20:11:27.933Z,-23639.19
2024-05-09T20:13:29.755Z,-23638.38
2024-05-09T20:15:35.340Z,-23639.00
2024-05-09T20:17:38.315Z,-23635.06
2024-05-09T20:19:42.892Z,-23635.22
2024-05-09T20:21:44.847Z,-23628.75
2024-05-09T20:23:46.687Z,-23633.81
2024-05-09T20:25:48.494Z,-23636.50
2024-05-09T20:27:50.294Z,-23629.88
2024-05-09T20:29:52.194Z,-23628.28
2024-05-09T20:31:56.581Z,-23631.13
2024-05-09T20:33:58.501Z,-23627.50
2024-05-09T20:36:02.152Z,-23630.50
2024-05-09T20:38:05.204Z,-23627.34
2024-05-09T20:40:12.269Z,-23627.50
2024-05-09T20:42:17.558Z,-23626.88
2024-05-09T20:44:19.478Z,-23624.19
2024-05-09T20:46:21.383Z,-23625.13
2024-05-09T20:48:26.082Z,-23624.66
2024-05-09T20:50:36.031Z,-23621.03
2024-05-09T20:52:41.773Z,-23624.97
2024-05-09T20:54:43.605Z,-23618.81
2024-05-09T20:56:45.444Z,-23617.22
2024-05-09T20:58:47.262Z,-23614.72
2024-05-09T21:00:49.229Z,-23610.13
2024-05-09T21:02:51.053Z,-23603.19
2024-05-09T21:04:55.664Z,-23612.34
2024-05-09T21:06:57.529Z,-23606.81
2024-05-09T21:08:59.357Z,-23610.28
2024-05-09T21:11:01.257Z,-23616.59
2024-05-09T21:13:03.928Z,-23613.44
2024-05-09T21:15:06.894Z,-23616.13
2024-05-09T21:17:08.811Z,-23611.53
2024-05-09T21:19:10.667Z,-23616.13
2024-05-09T21:21:15.066Z,-23618.97
2024-05-09T21:23:16.898Z,-23618.50
2024-05-09T21:25:18.734Z,-23614.72
2024-05-09T21:27:20.542Z,-23620.09
2024-05-09T21:29:22.310Z,-23620.88
2024-05-09T21:31:24.206Z,-23619.28
2024-05-09T21:33:26.163Z,-23621.03
2024-05-09T21:35:27.957Z,-23619.44
2024-05-09T21:37:32.353Z,-23619.91
2024-05-09T21:39:34.290Z,-23616.59
2024-05-09T21:41:36.102Z,-23614.72
2024-05-09T21:43:38.120Z,-23611.53
2024-05-09T21:45:39.998Z,-23613.75
2024-05-09T21:47:42.313Z,-23612.66
2024-05-09T21:49:44.231Z,-23610.28
2024-05-09T21:51:46.214Z,-23607.75
2024-05-09T21:53:50.836Z,-23608.06
2024-05-09T21:55:52.597Z,-23609.03
2024-05-09T21:57:54.471Z,-23604.13
2024-05-09T21:59:56.263Z,-23604.91
2024-05-09T22:01:58.264Z,-23600.97
2024-05-09T22:04:00.373Z,-23606.19
2024-05-09T22:06:02.275Z,-23607.44
2024-05-09T22:08:04.812Z,-23604.28
2024-05-09T22:10:19.586Z,-23590.38
2024-05-09T22:12:24.782Z,-23586.13
2024-05-09T22:14:26.616Z,-23583.28
2024-05-09T22:16:28.515Z,-23580.59
2024-05-09T22:18:30.478Z,-23574.41
2024-05-09T22:20:37.298Z,-23573.94
2024-05-09T22:22:41.088Z,-23568.25
2024-05-09T22:24:42.877Z,-23565.09
2024-05-09T22:26:47.352Z,-23566.34
2024-05-09T22:28:49.152Z,-23564.78
2024-05-09T22:30:50.960Z,-23565.56
2024-05-09T22:32:52.923Z,-23558.28
2024-05-09T22:34:54.869Z,-23555.28
2024-05-09T22:36:56.805Z,-23557.50
2024-05-09T22:38:58.612Z,-23558.44
2024-05-09T22:41:00.714Z,-23553.53
2024-05-09T22:43:05.560Z,-23549.59
2024-05-09T22:45:07.765Z,-23547.69
2024-05-09T22:47:09.737Z,-23544.84
2024-05-09T22:49:11.692Z,-23547.38
2024-05-09T22:51:13.604Z,-23545.63
2024-05-09T22:53:15.552Z,-23542.94
2024-05-09T22:55:17.387Z,-23542.63
2024-05-09T22:57:19.221Z,-23539.00
2024-05-09T22:59:23.648Z,-23536.28
2024-05-09T23:01:26.909Z,-23537.41
2024-05-09T23:03:28.933Z,-23534.06
2024-05-09T23:05:31.168Z,-23531.06
2024-05-09T23:07:33.032Z,-23531.53
2024-05-09T23:09:34.955Z,-23535.03
2024-05-09T23:11:40.639Z,-23536.78
2024-05-09T23:13:42.416Z,-23536.94
2024-05-09T23:15:46.792Z,-23535.34
2024-05-09T23:17:48.719Z,-23533.13
2024-05-09T23:19:50.545Z,-23532.34
2024-05-09T23:21:52.408Z,-23532.19
2024-05-09T23:23:54.236Z,-23531.84
2024-05-09T23:25:56.021Z,-23532.19
2024-05-09T23:27:59.706Z,-23533.13
2024-05-09T23:30:01.589Z,-23530.59
2024-05-09T23:32:06.324Z,-23536.94
2024-05-09T23:34:08.271Z,-23531.53
2024-05-09T23:36:10.132Z,-23531.38